Time;durP1;ratioP1;P1;durP2;ratioP2;P2;SDS_P1;SDS_P2;PMS_P1;PMS_P2;Temp;Humidity;BMP_temperature;BMP_pressure;BME280_temperature;BME280_humidity;BME280_pressure;Samples;Min_cycle;Max_cycle;Signal;HPM_P1;HPM_P2
2022/02/25 00:00:21;;;;;;;8.37;1.40;;;2.90;99.90;;;;;;5036408;28;20032;-77
2022/02/25 00:02:46;;;;;;;6.87;1.43;;;2.90;99.90;;;;;;5054688;28;20479;-77
2022/02/25 00:05:12;;;;;;;7.60;1.10;;;2.90;99.90;;;;;;5052885;28;20017;-77
2022/02/25 00:07:38;;;;;;;7.70;0.90;;;2.80;99.90;;;;;;5036452;28;20145;-77
2022/02/25 00:10:05;;;;;;;8.00;1.13;;;2.90;99.90;;;;;;5033134;28;20036;-78
2022/02/25 00:12:31;;;;;;;5.80;1.10;;;2.90;99.90;;;;;;5032850;28;20091;-76
2022/02/25 00:14:57;;;;;;;14.00;1.10;;;2.90;99.90;;;;;;5016770;28;20057;-76
2022/02/25 00:17:22;;;;;;;8.07;0.93;;;2.90;99.90;;;;;;5016125;28;20057;-76
2022/02/25 00:19:48;;;;;;;5.40;0.93;;;2.80;99.90;;;;;;5016485;28;20032;-76
2022/02/25 00:22:14;;;;;;;6.10;1.13;;;2.80;99.90;;;;;;5033289;28;20049;-76
2022/02/25 00:24:39;;;;;;;6.30;1.20;;;2.80;99.90;;;;;;5033092;28;20419;-76
2022/02/25 00:27:05;;;;;;;8.40;0.90;;;2.90;99.90;;;;;;5033913;28;20030;-76
2022/02/25 00:29:31;;;;;;;7.80;1.03;;;2.80;99.90;;;;;;5032990;28;20092;-76
2022/02/25 00:31:56;;;;;;;7.07;1.10;;;2.80;99.90;;;;;;5036208;28;20036;-76
2022/02/25 00:34:22;;;;;;;7.63;1.00;;;2.80;99.90;;;;;;5052339;28;20017;-76
2022/02/25 00:36:47;;;;;;;7.70;1.43;;;2.80;99.90;;;;;;5035682;28;20482;-76
2022/02/25 00:39:13;;;;;;;4.50;1.03;;;2.80;99.90;;;;;;5032686;28;20041;-76
2022/02/25 00:41:39;;;;;;;7.17;1.27;;;2.80;99.90;;;;;;5016206;28;20133;-77
2022/02/25 00:44:04;;;;;;;6.33;0.90;;;2.80;99.90;;;;;;5016021;28;20057;-76
2022/02/25 00:46:30;;;;;;;5.97;0.90;;;2.80;99.90;;;;;;5037154;28;20058;-76
2022/02/25 00:48:56;;;;;;;7.07;1.53;;;2.80;99.90;;;;;;5034989;28;20389;-76
2022/02/25 00:51:21;;;;;;;7.60;0.93;;;2.90;99.90;;;;;;5052317;28;20033;-76
2022/02/25 00:53:48;;;;;;;8.90;1.13;;;3.00;99.90;;;;;;5053358;28;20155;-76
2022/02/25 00:56:14;;;;;;;11.97;1.60;;;3.00;99.90;;;;;;5052173;28;20032;-76
2022/02/25 00:58:40;;;;;;;10.27;1.93;;;3.10;99.90;;;;;;5035404;28;20033;-76
2022/02/25 01:01:05;;;;;;;8.00;1.13;;;3.10;99.90;;;;;;5019072;28;20060;-76
2022/02/25 01:03:31;;;;;;;11.33;1.27;;;3.20;99.90;;;;;;5052056;28;20063;-77
2022/02/25 01:05:57;;;;;;;5.90;1.03;;;3.20;99.90;;;;;;5052177;28;20503;-76
2022/02/25 01:08:23;;;;;;;17.00;1.97;;;3.10;99.90;;;;;;5051750;28;20420;-76
2022/02/25 01:10:48;;;;;;;9.30;1.40;;;3.10;99.90;;;;;;5051736;28;20053;-77
2022/02/25 01:13:14;;;;;;;12.07;1.00;;;3.10;99.90;;;;;;5051725;28;20064;-77
2022/02/25 01:15:39;;;;;;;8.83;1.40;;;3.10;99.90;;;;;;5051909;28;20029;-76
2022/02/25 01:18:08;;;;;;;7.83;1.10;;;3.00;99.90;;;;;;5031458;28;20030;-76
2022/02/25 01:20:34;;;;;;;11.60;1.20;;;3.00;99.90;;;;;;5015366;28;20392;-76
2022/02/25 01:22:59;;;;;;;11.10;1.30;;;3.00;99.90;;;;;;5031767;28;20021;-76
2022/02/25 01:25:25;;;;;;;12.33;1.60;;;2.90;99.90;;;;;;5015327;28;20389;-77
2022/02/25 01:27:51;;;;;;;7.70;1.50;;;2.90;99.90;;;;;;5034274;28;20034;-76
2022/02/25 01:30:17;;;;;;;9.73;1.53;;;2.90;99.90;;;;;;5035172;28;20037;-76
2022/02/25 01:32:42;;;;;;;9.20;1.60;;;2.90;99.90;;;;;;5052941;28;20029;-76
2022/02/25 01:35:08;;;;;;;5.27;1.20;;;2.80;99.90;;;;;;5050470;28;20536;-76
2022/02/25 01:37:34;;;;;;;8.00;1.57;;;2.80;99.90;;;;;;5040481;28;20057;-76
2022/02/25 01:40:00;;;;;;;12.90;1.83;;;2.80;99.90;;;;;;5031421;28;20512;-76
2022/02/25 01:42:26;;;;;;;8.50;1.40;;;2.80;99.90;;;;;;5039727;28;20481;-76
2022/02/25 01:44:51;;;;;;;10.10;2.37;;;2.70;99.90;;;;;;5048793;28;20033;-76
2022/02/25 01:47:17;;;;;;;11.37;2.40;;;2.70;99.90;;;;;;5033034;28;20061;-76
2022/02/25 01:49:43;;;;;;;12.10;2.77;;;2.70;99.90;;;;;;5032991;28;20025;-77
2022/02/25 01:52:17;;;;;;;10.07;2.40;;;2.60;99.90;;;;;;5048385;28;20104;-76
2022/02/25 01:54:44;;;;;;;10.93;3.03;;;2.60;99.90;;;;;;5032926;28;20032;-77
2022/02/25 01:57:12;;;;;;;12.87;2.77;;;2.70;99.90;;;;;;5031677;28;20032;-76
2022/02/25 01:59:39;;;;;;;10.23;2.97;;;2.60;99.90;;;;;;5050671;28;20032;-76
2022/02/25 02:02:05;;;;;;;9.87;2.67;;;2.60;99.90;;;;;;5035516;28;20034;-76
2022/02/25 02:04:32;;;;;;;10.10;3.53;;;2.60;99.90;;;;;;5037294;28;20059;-76
2022/02/25 02:06:58;;;;;;;13.40;3.00;;;2.70;99.90;;;;;;5036745;28;20486;-76
2022/02/25 02:09:23;;;;;;;9.03;2.70;;;2.60;99.90;;;;;;5018485;28;20500;-77
2022/02/25 02:11:51;;;;;;;9.10;2.87;;;2.60;99.90;;;;;;5019041;28;20034;-76
2022/02/25 02:14:21;;;;;;;11.80;3.37;;;2.60;99.90;;;;;;5018572;28;20044;-76
2022/02/25 02:16:49;;;;;;;16.03;3.00;;;2.60;99.90;;;;;;5044408;28;20492;-76
2022/02/25 02:19:15;;;;;;;11.30;2.77;;;2.50;99.90;;;;;;5054690;28;20049;-77
2022/02/25 02:21:47;;;;;;;20.93;3.73;;;2.60;99.90;;;;;;5045208;28;20032;-76
2022/02/25 02:24:14;;;;;;;12.93;3.40;;;2.50;99.90;;;;;;5054829;28;20029;-76
2022/02/25 02:26:40;;;;;;;9.53;3.57;;;2.40;99.90;;;;;;5038472;28;20492;-76
2022/02/25 02:29:07;;;;;;;10.30;3.60;;;2.50;99.90;;;;;;5056617;28;20120;-76
2022/02/25 02:31:33;;;;;;;10.70;3.63;;;2.50;99.90;;;;;;5021612;28;20486;-76
2022/02/25 02:33:59;;;;;;;12.17;3.40;;;2.50;99.90;;;;;;5018286;28;20060;-76
2022/02/25 02:36:24;;;;;;;13.97;3.80;;;2.50;99.90;;;;;;5033784;28;20025;-77
2022/02/25 02:38:50;;;;;;;14.17;4.27;;;2.50;99.90;;;;;;5048405;28;20052;-77
2022/02/25 02:41:16;;;;;;;11.63;3.63;;;2.50;99.90;;;;;;5034557;28;20116;-76
2022/02/25 02:43:42;;;;;;;12.63;3.37;;;2.50;99.90;;;;;;5034384;28;20021;-76
2022/02/25 02:46:08;;;;;;;10.40;3.13;;;2.50;99.90;;;;;;5018080;28;20061;-76
2022/02/25 02:48:35;;;;;;;10.63;3.23;;;2.50;99.90;;;;;;5034599;28;20033;-76
2022/02/25 02:51:01;;;;;;;8.53;3.43;;;2.50;99.90;;;;;;5046281;28;20083;-77
2022/02/25 02:53:27;;;;;;;11.13;3.43;;;2.50;99.90;;;;;;5037916;28;20044;-76
2022/02/25 02:55:53;;;;;;;14.43;3.67;;;2.50;99.90;;;;;;5054066;28;20036;-76
2022/02/25 02:58:20;;;;;;;11.10;3.77;;;2.50;99.90;;;;;;5054238;28;20478;-77
2022/02/25 03:00:48;;;;;;;12.97;3.50;;;2.50;99.90;;;;;;5054181;28;20048;-76
2022/02/25 03:03:14;;;;;;;12.00;3.57;;;2.50;99.90;;;;;;5054356;28;20051;-76
2022/02/25 03:05:43;;;;;;;14.50;4.00;;;2.50;99.90;;;;;;5055367;28;20033;-76
2022/02/25 03:08:10;;;;;;;11.73;2.87;;;2.50;99.90;;;;;;5041267;28;20030;-76
2022/02/25 03:10:38;;;;;;;9.80;4.07;;;2.50;99.90;;;;;;5034416;28;20025;-76
2022/02/25 03:13:05;;;;;;;12.80;3.37;;;2.50;99.90;;;;;;5034087;28;20132;-76
2022/02/25 03:15:31;;;;;;;15.67;4.07;;;2.50;99.90;;;;;;5034156;28;20021;-76
2022/02/25 03:17:56;;;;;;;10.90;3.07;;;2.60;99.90;;;;;;5017447;28;20470;-76
2022/02/25 03:20:23;;;;;;;13.83;2.87;;;2.50;99.90;;;;;;5017792;28;20160;-76
2022/02/25 03:22:49;;;;;;;10.97;2.60;;;2.50;99.90;;;;;;5033779;28;20485;-78
2022/02/25 03:25:16;;;;;;;12.30;2.57;;;2.50;99.90;;;;;;5034148;28;20108;-78
2022/02/25 03:27:43;;;;;;;10.47;2.73;;;2.50;99.90;;;;;;5033835;28;20094;-76
2022/02/25 03:30:09;;;;;;;10.33;2.90;;;2.50;99.90;;;;;;5017091;28;20036;-77
2022/02/25 03:32:35;;;;;;;9.43;2.90;;;2.60;99.90;;;;;;5033453;28;20048;-76
2022/02/25 03:35:01;;;;;;;13.13;3.00;;;2.60;99.90;;;;;;5020691;28;20033;-76
2022/02/25 03:37:30;;;;;;;6.27;2.70;;;2.60;99.90;;;;;;5053245;28;20497;-76
2022/02/25 03:39:56;;;;;;;12.97;2.60;;;2.60;99.90;;;;;;5033336;28;20018;-76
2022/02/25 03:42:22;;;;;;;9.43;2.80;;;2.60;99.90;;;;;;5016992;28;20026;-76
2022/02/25 03:44:48;;;;;;;10.93;3.63;;;2.60;99.90;;;;;;5016997;28;20036;-76
2022/02/25 03:47:15;;;;;;;10.00;2.63;;;2.60;99.90;;;;;;5033446;28;20036;-76
2022/02/25 03:49:40;;;;;;;9.20;2.30;;;2.60;99.90;;;;;;5033354;28;20041;-76
2022/02/25 03:52:06;;;;;;;12.50;3.13;;;2.60;99.90;;;;;;5034514;28;20025;-76
2022/02/25 03:54:32;;;;;;;10.40;2.33;;;2.60;99.90;;;;;;5016757;28;20124;-77
2022/02/25 03:56:58;;;;;;;9.73;2.50;;;2.60;99.90;;;;;;5016751;28;20049;-76
2022/02/25 03:59:24;;;;;;;9.03;1.87;;;2.60;99.90;;;;;;5033161;28;20018;-76
2022/02/25 04:01:52;;;;;;;14.43;2.40;;;2.60;99.90;;;;;;5033110;28;20021;-76
2022/02/25 04:04:22;;;;;;;15.17;3.97;;;2.60;99.90;;;;;;5034313;28;20025;-76
2022/02/25 04:06:49;;;;;;;10.23;2.30;;;2.60;99.90;;;;;;5033249;28;20374;-76
2022/02/25 04:09:18;;;;;;;17.43;3.00;;;2.60;99.90;;;;;;5033467;28;20120;-76
2022/02/25 04:11:48;;;;;;;15.13;2.97;;;2.60;99.90;;;;;;5033204;28;20405;-76
2022/02/25 04:14:14;;;;;;;17.27;2.63;;;2.60;99.90;;;;;;5016310;28;20026;-76
2022/02/25 04:16:41;;;;;;;11.93;2.07;;;2.60;99.90;;;;;;5032735;28;20486;-76
2022/02/25 04:19:07;;;;;;;11.70;2.50;;;2.60;99.90;;;;;;5016438;28;20057;-76
2022/02/25 04:21:33;;;;;;;8.53;2.13;;;2.60;99.90;;;;;;5032631;28;20482;-76
2022/02/25 04:23:58;;;;;;;11.23;2.90;;;2.70;99.90;;;;;;5032748;28;20025;-76
2022/02/25 04:26:24;;;;;;;14.30;2.60;;;2.60;99.90;;;;;;5016510;28;20429;-76
2022/02/25 04:28:50;;;;;;;9.50;2.37;;;2.50;99.90;;;;;;5016220;28;20076;-76
2022/02/25 04:31:17;;;;;;;11.33;2.87;;;2.50;99.90;;;;;;5033927;28;20032;-76
2022/02/25 04:33:42;;;;;;;14.83;2.73;;;2.50;99.90;;;;;;5016334;28;20053;-76
2022/02/25 04:36:08;;;;;;;14.87;2.87;;;2.50;99.90;;;;;;5032605;28;20057;-76
2022/02/25 04:38:34;;;;;;;16.70;2.60;;;2.60;99.90;;;;;;5032522;28;20041;-76
2022/02/25 04:41:01;;;;;;;14.20;2.10;;;2.50;99.90;;;;;;5016051;28;20462;-76
2022/02/25 04:43:28;;;;;;;9.30;2.70;;;2.70;99.90;;;;;;5016280;28;20022;-76
2022/02/25 04:45:54;;;;;;;13.10;2.63;;;2.50;99.90;;;;;;5037547;28;20018;-77
2022/02/25 04:48:20;;;;;;;20.77;3.67;;;2.50;99.90;;;;;;5033718;28;20064;-76
2022/02/25 04:50:46;;;;;;;11.63;3.00;;;2.50;99.90;;;;;;5016245;28;20068;-76
2022/02/25 04:53:12;;;;;;;12.20;2.57;;;2.50;99.90;;;;;;5032662;28;20140;-76
2022/02/25 04:55:37;;;;;;;15.90;2.80;;;2.50;99.90;;;;;;5032404;28;20032;-76
2022/02/25 04:58:03;;;;;;;13.20;2.90;;;2.50;99.90;;;;;;5016099;28;20021;-76
2022/02/25 05:00:29;;;;;;;12.17;2.17;;;2.50;99.90;;;;;;5033604;28;20025;-76
2022/02/25 05:02:55;;;;;;;11.93;2.43;;;2.50;99.90;;;;;;5033349;28;20030;-77
2022/02/25 05:05:20;;;;;;;13.03;2.97;;;2.50;99.90;;;;;;5032000;28;20024;-76
2022/02/25 05:07:46;;;;;;;16.87;2.93;;;2.40;99.90;;;;;;5032078;28;20036;-77
2022/02/25 05:10:12;;;;;;;17.83;2.50;;;2.60;99.90;;;;;;5016103;28;20026;-76
2022/02/25 05:12:38;;;;;;;13.43;2.53;;;2.40;99.90;;;;;;5032136;28;20377;-76
2022/02/25 05:20:33;;;;;;;15.15;3.17;;;2.50;99.90;;;;;;5033521;28;20513;-77
2022/02/25 05:23:01;;;;;;;8.10;1.60;;;2.50;99.90;;;;;;5019907;28;20033;-76
2022/02/25 05:25:29;;;;;;;9.90;2.17;;;2.50;99.90;;;;;;5033050;28;20026;-76
2022/02/25 05:27:58;;;;;;;19.50;2.47;;;2.60;99.90;;;;;;5015680;28;20022;-78
2022/02/25 05:30:26;;;;;;;14.83;2.60;;;2.60;99.90;;;;;;5037416;28;20530;-77
2022/02/25 05:32:52;;;;;;;19.17;2.97;;;2.50;99.90;;;;;;5035325;28;20037;-76
2022/02/25 05:35:18;;;;;;;8.90;1.73;;;2.60;99.90;;;;;;5038527;28;20124;-76
2022/02/25 05:37:45;;;;;;;17.00;2.77;;;2.70;99.90;;;;;;5039052;28;20098;-76
2022/02/25 05:40:13;;;;;;;21.00;3.17;;;2.70;99.90;;;;;;5038998;28;20208;-76
2022/02/25 05:42:41;;;;;;;13.47;2.67;;;2.80;99.90;;;;;;5055629;28;20031;-76
2022/02/25 05:45:08;;;;;;;13.63;2.70;;;2.80;99.90;;;;;;5038998;28;20120;-76
2022/02/25 05:47:34;;;;;;;16.63;3.53;;;2.90;99.90;;;;;;5022581;28;20029;-76
2022/02/25 05:50:01;;;;;;;16.17;2.23;;;2.90;99.90;;;;;;5039041;28;20029;-77
2022/02/25 05:52:26;;;;;;;12.10;2.00;;;2.90;99.90;;;;;;5038457;28;20060;-76
2022/02/25 05:54:52;;;;;;;20.17;2.90;;;2.90;99.90;;;;;;5045223;28;20037;-77
2022/02/25 05:57:18;;;;;;;20.97;2.70;;;2.90;99.90;;;;;;5018949;28;20028;-76
2022/02/25 05:59:43;;;;;;;12.37;2.97;;;3.00;99.90;;;;;;5018942;28;20103;-76
2022/02/25 06:02:10;;;;;;;16.47;2.20;;;3.00;99.90;;;;;;5038880;28;20084;-77
2022/02/25 06:04:36;;;;;;;19.47;2.50;;;3.00;99.90;;;;;;5040017;28;20026;-76
2022/02/25 06:07:02;;;;;;;17.00;2.10;;;3.20;99.90;;;;;;5036653;28;20049;-76
2022/02/25 06:09:27;;;;;;;20.53;3.03;;;3.00;99.90;;;;;;5018804;28;20033;-76
2022/02/25 06:11:53;;;;;;;19.27;2.70;;;3.10;99.90;;;;;;5018454;28;20029;-76
2022/02/25 06:14:18;;;;;;;21.57;2.60;;;3.10;99.90;;;;;;5018411;28;20033;-76
2022/02/25 06:16:44;;;;;;;16.47;2.33;;;3.20;99.90;;;;;;5034707;28;20477;-77
2022/02/25 06:19:10;;;;;;;17.27;2.87;;;3.20;99.90;;;;;;5018711;28;20375;-78
2022/02/25 06:21:35;;;;;;;14.47;2.27;;;3.30;99.90;;;;;;5034702;28;20044;-76
2022/02/25 06:24:01;;;;;;;18.47;2.93;;;3.30;99.90;;;;;;5034828;28;20033;-77
2022/02/25 06:26:28;;;;;;;13.87;2.70;;;3.30;99.90;;;;;;5037336;28;20030;-76
2022/02/25 06:28:53;;;;;;;20.03;2.83;;;3.40;99.90;;;;;;5034768;28;20034;-76
2022/02/25 06:31:19;;;;;;;13.37;2.60;;;3.40;99.90;;;;;;5018674;28;20550;-76
2022/02/25 06:33:45;;;;;;;17.13;2.43;;;3.30;99.90;;;;;;5029901;28;20025;-77
2022/02/25 06:36:10;;;;;;;15.83;3.53;;;3.40;99.90;;;;;;5018210;28;20207;-75
2022/02/25 06:38:37;;;;;;;16.30;2.67;;;3.40;99.90;;;;;;5017982;28;20045;-76
2022/02/25 06:41:03;;;;;;;13.93;2.90;;;3.40;99.90;;;;;;5034886;28;20355;-76
2022/02/25 06:43:29;;;;;;;14.27;2.50;;;3.50;99.90;;;;;;5041093;28;20029;-75
2022/02/25 06:45:54;;;;;;;24.33;4.50;;;3.50;99.90;;;;;;5037087;28;20033;-77
2022/02/25 06:48:20;;;;;;;21.03;2.87;;;3.50;99.90;;;;;;5035161;28;20420;-76
2022/02/25 06:50:46;;;;;;;17.87;3.93;;;3.40;99.90;;;;;;5001670;28;20083;-76
2022/02/25 06:53:12;;;;;;;18.37;2.90;;;3.50;99.90;;;;;;5039592;28;20481;-79
2022/02/25 06:55:38;;;;;;;13.47;3.43;;;3.50;99.90;;;;;;5016425;28;20458;-78
2022/02/25 06:58:06;;;;;;;14.53;2.83;;;3.40;99.90;;;;;;5017670;28;20079;-78
2022/02/25 07:00:39;;;;;;;23.37;3.33;;;3.60;99.90;;;;;;5051329;28;20036;-81
2022/02/25 07:03:06;;;;;;;18.80;3.65;;;3.50;99.90;;;;;;5035579;28;20037;-79
2022/02/25 07:05:39;;;;;;;16.20;3.40;;;3.50;99.90;;;;;;5017810;28;20087;-78
2022/02/25 07:08:09;;;;;;;15.70;3.17;;;3.50;99.90;;;;;;5034388;28;20025;-79
2022/02/25 07:10:36;;;;;;;18.33;3.90;;;3.50;99.90;;;;;;5035197;28;20036;-80
2022/02/25 07:13:03;;;;;;;20.87;3.50;;;3.50;99.90;;;;;;5017232;28;20116;-79
2022/02/25 07:15:29;;;;;;;22.37;3.93;;;3.60;99.90;;;;;;5033669;28;20037;-78
2022/02/25 07:17:56;;;;;;;17.73;3.87;;;3.60;99.90;;;;;;5033576;28;20373;-78
2022/02/25 07:20:22;;;;;;;19.23;3.70;;;3.60;99.90;;;;;;5033880;28;20061;-79
2022/02/25 07:22:47;;;;;;;16.07;4.07;;;3.70;99.90;;;;;;5026794;28;20056;-80
2022/02/25 07:25:14;;;;;;;20.30;3.83;;;3.70;99.90;;;;;;5051059;28;20021;-80
2022/02/25 07:27:40;;;;;;;16.03;3.60;;;3.70;99.90;;;;;;5001249;28;20082;-78
2022/02/25 07:30:06;;;;;;;25.53;4.70;;;3.70;99.90;;;;;;5028155;28;20026;-80
2022/02/25 07:32:32;;;;;;;22.33;3.80;;;3.80;99.90;;;;;;5048235;28;20036;-78
2022/02/25 07:34:58;;;;;;;15.00;2.87;;;3.80;99.90;;;;;;5053124;28;20033;-78
2022/02/25 07:37:23;;;;;;;21.13;5.13;;;3.80;99.90;;;;;;5020571;28;20135;-80
2022/02/25 07:39:49;;;;;;;20.13;3.47;;;3.80;99.90;;;;;;5053010;28;20032;-79
2022/02/25 07:42:15;;;;;;;16.57;3.47;;;3.80;99.90;;;;;;5020218;28;20029;-78
2022/02/25 07:44:40;;;;;;;15.97;2.83;;;3.80;99.90;;;;;;5033234;28;20025;-79
2022/02/25 07:47:06;;;;;;;17.73;3.17;;;4.00;99.90;;;;;;5033065;28;20119;-83
2022/02/25 07:49:32;;;;;;;15.43;3.40;;;3.90;99.90;;;;;;5050053;28;20037;-80
2022/02/25 07:51:58;;;;;;;13.87;2.67;;;3.90;99.90;;;;;;5034924;28;20036;-83
2022/02/25 07:54:25;;;;;;;19.40;2.90;;;4.00;99.90;;;;;;5033122;28;20037;-80
2022/02/25 07:56:51;;;;;;;20.43;2.77;;;4.00;99.90;;;;;;5049376;28;20021;-79
2022/02/25 07:59:17;;;;;;;16.73;3.40;;;4.10;99.90;;;;;;5033483;28;20049;-81
2022/02/25 08:01:46;;;;;;;15.03;2.50;;;4.20;99.90;;;;;;5034834;28;20044;-83
2022/02/25 08:04:11;;;;;;;23.73;3.03;;;4.20;99.90;;;;;;5048424;28;20024;-81
2022/02/25 08:06:37;;;;;;;22.37;3.87;;;4.20;99.90;;;;;;5020482;28;20070;-86
2022/02/25 08:09:03;;;;;;;21.33;3.33;;;4.40;99.90;;;;;;5053689;28;20032;-84
2022/02/25 08:11:29;;;;;;;18.93;2.37;;;4.30;99.90;;;;;;5036707;28;20473;-81
2022/02/25 08:13:55;;;;;;;22.03;3.50;;;4.30;99.90;;;;;;5019694;28;20051;-85
2022/02/25 08:16:24;;;;;;;19.27;2.87;;;4.40;99.90;;;;;;5037462;28;20067;-80
2022/02/25 08:18:50;;;;;;;17.20;2.73;;;4.50;99.90;;;;;;5054182;28;20040;-83
2022/02/25 08:21:16;;;;;;;17.23;3.17;;;4.60;99.90;;;;;;5032934;28;20025;-80
2022/02/25 08:23:41;;;;;;;17.83;2.00;;;4.80;99.90;;;;;;5017332;28;20030;-81
2022/02/25 08:26:07;;;;;;;17.60;2.43;;;4.80;99.90;;;;;;5017046;28;20021;-82
2022/02/25 08:28:33;;;;;;;19.37;2.43;;;5.00;99.90;;;;;;5017263;28;20021;-84
2022/02/25 08:30:59;;;;;;;14.67;2.77;;;5.00;99.90;;;;;;5033448;28;20037;-82
2022/02/25 08:33:25;;;;;;;22.07;3.67;;;5.10;99.90;;;;;;5045431;28;20044;-82
2022/02/25 08:35:52;;;;;;;14.83;2.33;;;5.20;99.90;;;;;;5053302;28;20117;-82
2022/02/25 08:38:18;;;;;;;16.47;3.23;;;5.30;99.90;;;;;;5036311;28;20489;-82
2022/02/25 08:40:44;;;;;;;21.10;3.10;;;5.50;99.90;;;;;;5053516;28;20029;-81
2022/02/25 08:43:10;;;;;;;21.13;2.70;;;5.60;99.90;;;;;;5032949;28;20087;-80
2022/02/25 08:45:40;;;;;;;13.10;2.97;;;5.70;99.90;;;;;;5033112;28;20104;-83
2022/02/25 08:48:06;;;;;;;14.77;2.07;;;5.80;99.90;;;;;;5016829;28;20437;-83
2022/02/25 08:50:32;;;;;;;12.90;1.83;;;5.90;99.90;;;;;;5033144;28;20030;-83
2022/02/25 08:52:57;;;;;;;17.97;2.40;;;6.00;99.90;;;;;;5018381;28;20029;-82
2022/02/25 08:55:24;;;;;;;15.13;2.10;;;6.10;99.90;;;;;;5051961;28;20063;-82
2022/02/25 08:57:50;;;;;;;17.50;2.40;;;6.20;99.90;;;;;;5032477;28;20167;-83
2022/02/25 09:00:21;;;;;;;12.27;1.90;;;6.20;99.90;;;;;;5016425;28;20067;-81
2022/02/25 09:02:47;;;;;;;13.63;1.73;;;6.30;99.90;;;;;;5042573;28;20021;-82
2022/02/25 09:05:14;;;;;;;17.93;2.27;;;6.50;99.90;;;;;;5036344;28;20119;-82
2022/02/25 09:07:40;;;;;;;15.97;2.00;;;6.50;99.90;;;;;;5050075;28;20022;-80
2022/02/25 09:10:08;;;;;;;21.67;3.00;;;6.60;99.90;;;;;;5052142;28;20032;-79
2022/02/25 09:12:35;;;;;;;17.67;2.47;;;6.70;99.90;;;;;;5052641;28;20040;-83
2022/02/25 09:15:06;;;;;;;18.70;3.07;;;6.70;99.90;;;;;;5051925;28;20017;-78
2022/02/25 09:17:32;;;;;;;10.70;1.80;;;6.80;99.90;;;;;;5051806;28;20021;-78
2022/02/25 09:19:57;;;;;;;21.20;3.00;;;6.90;99.90;;;;;;5035562;28;20436;-78
2022/02/25 09:22:23;;;;;;;15.10;2.27;;;7.00;99.50;;;;;;5052253;28;20108;-78
2022/02/25 09:24:49;;;;;;;14.97;2.50;;;7.00;99.40;;;;;;5051857;28;20029;-78
2022/02/25 09:27:15;;;;;;;17.17;2.50;;;7.10;98.20;;;;;;5035036;28;20029;-76
2022/02/25 09:29:41;;;;;;;21.47;2.33;;;7.30;98.40;;;;;;5031555;28;20033;-79
2022/02/25 09:32:08;;;;;;;18.97;1.83;;;7.30;98.10;;;;;;5015913;28;20026;-78
2022/02/25 09:34:35;;;;;;;14.70;1.97;;;7.40;97.10;;;;;;5032029;28;20018;-78
2022/02/25 09:37:01;;;;;;;14.83;2.40;;;7.50;96.10;;;;;;5049048;28;20033;-80
2022/02/25 09:39:27;;;;;;;16.23;2.37;;;7.50;95.90;;;;;;5032308;28;20056;-81
2022/02/25 09:41:56;;;;;;;12.57;2.20;;;7.50;94.90;;;;;;5032452;28;20401;-81
2022/02/25 09:44:23;;;;;;;14.80;1.90;;;7.60;95.60;;;;;;5032700;28;20057;-84
2022/02/25 09:46:48;;;;;;;15.93;2.07;;;7.80;95.10;;;;;;5032168;28;20087;-82
2022/02/25 09:49:14;;;;;;;16.77;2.60;;;7.70;94.50;;;;;;5016830;28;20038;-81
2022/02/25 09:51:40;;;;;;;17.60;2.00;;;7.70;93.70;;;;;;5016254;28;20095;-82
2022/02/25 09:54:07;;;;;;;14.53;2.10;;;7.70;93.80;;;;;;5015528;28;20026;-82
2022/02/25 09:56:33;;;;;;;16.00;2.10;;;7.50;94.50;;;;;;5033960;28;20017;-81
2022/02/25 09:59:00;;;;;;;15.47;2.60;;;7.50;94.80;;;;;;5016408;28;20029;-84
2022/02/25 10:01:33;;;;;;;15.00;2.30;;;7.40;95.00;;;;;;5032034;28;20030;-83
2022/02/25 10:04:12;;;;;;;16.67;2.83;;;7.40;95.40;;;;;;5015776;28;20022;-86
2022/02/25 10:06:38;;;;;;;20.07;2.93;;;7.20;95.50;;;;;;5033242;28;20030;-84
2022/02/25 10:09:36;;;;;;;16.30;2.50;;;7.20;95.80;;;;;;5033330;28;20048;-80
2022/02/25 10:12:03;;;;;;;14.50;2.20;;;7.10;96.10;;;;;;5032726;28;20037;-80
2022/02/25 10:14:37;;;;;;;14.17;2.17;;;7.00;96.50;;;;;;5032241;28;20164;-81
2022/02/25 10:17:09;;;;;;;;;;;7.00;96.30;;;;;;5032809;28;20109;-85
2022/02/25 10:19:36;;;;;;;25.10;2.93;;;7.00;96.40;;;;;;5032995;28;19909;-82
2022/02/25 10:22:18;;;;;;;13.00;1.97;;;7.00;96.00;;;;;;5018651;28;20029;-81
2022/02/25 10:24:50;;;;;;;13.13;3.13;;;7.00;96.30;;;;;;5035498;28;20025;-80
2022/02/25 10:27:21;;;;;;;17.57;2.40;;;7.30;97.00;;;;;;5035344;28;20026;-86
2022/02/25 10:29:54;;;;;;;14.90;1.97;;;7.40;96.20;;;;;;5052456;28;20029;-83
2022/02/25 10:32:27;;;;;;;16.80;2.00;;;7.40;96.10;;;;;;5054995;28;20025;-80
2022/02/25 10:34:52;;;;;;;21.20;2.67;;;7.50;96.20;;;;;;5055043;28;20025;-84
2022/02/25 10:37:18;;;;;;;14.47;2.40;;;7.30;96.30;;;;;;5055471;28;20044;-81
2022/02/25 10:39:44;;;;;;;16.10;2.57;;;7.20;96.40;;;;;;5038516;28;20025;-79
2022/02/25 10:42:12;;;;;;;18.50;2.80;;;7.10;96.80;;;;;;5053018;28;20428;-84
2022/02/25 10:44:57;;;;;;;16.77;2.13;;;7.10;97.10;;;;;;5056103;28;20435;-80
2022/02/25 10:47:28;;;;;;;15.37;2.33;;;7.00;97.50;;;;;;5056416;28;20112;-83
2022/02/25 10:50:04;;;;;;;18.97;2.70;;;6.90;97.90;;;;;;5054247;28;20028;-83
2022/02/25 10:52:36;;;;;;;16.13;2.17;;;6.90;98.00;;;;;;5050878;28;20382;-81
2022/02/25 10:55:05;;;;;;;20.47;2.60;;;6.80;98.60;;;;;;5035551;28;20040;-83
2022/02/25 10:57:34;;;;;;;19.90;2.90;;;6.80;98.20;;;;;;5052503;28;20071;-83
2022/02/25 11:00:00;;;;;;;14.80;2.47;;;6.70;98.60;;;;;;5053662;28;20045;-81
2022/02/25 11:02:38;;;;;;;22.60;2.83;;;6.70;99.00;;;;;;5054219;28;20013;-82
2022/02/25 11:05:27;;;;;;;16.67;2.20;;;6.60;99.40;;;;;;5054242;28;20021;-81
2022/02/25 11:07:55;;;;;;;16.27;2.17;;;6.70;99.90;;;;;;5049624;28;20026;-81
2022/02/25 11:10:23;;;;;;;16.37;2.63;;;6.50;99.90;;;;;;5033576;28;20052;-81
2022/02/25 11:12:50;;;;;;;15.20;2.50;;;6.40;99.90;;;;;;5034115;28;20555;-83
2022/02/25 11:15:23;;;;;;;14.87;3.10;;;6.20;99.90;;;;;;5042846;28;20036;-81
2022/02/25 11:17:50;;;;;;;20.00;2.50;;;6.10;99.90;;;;;;5050996;28;20096;-81
2022/02/25 11:20:20;;;;;;;20.13;2.73;;;5.90;99.90;;;;;;5034161;28;20032;-82
2022/02/25 11:22:48;;;;;;;17.30;2.30;;;5.80;99.90;;;;;;5051150;28;20029;-85
2022/02/25 11:25:16;;;;;;;23.73;2.57;;;5.70;99.90;;;;;;5051242;28;20056;-85
2022/02/25 11:27:44;;;;;;;21.27;2.53;;;5.70;99.90;;;;;;5035155;28;20496;-83
2022/02/25 11:30:36;;;;;;;18.20;2.60;;;5.60;99.90;;;;;;5035534;28;20032;-84
2022/02/25 11:33:15;;;;;;;17.37;2.60;;;5.60;99.90;;;;;;5032665;28;20037;-85
2022/02/25 11:35:52;;;;;;;19.20;2.47;;;5.50;99.90;;;;;;5034423;28;20025;-83
2022/02/25 11:38:38;;;;;;;19.57;2.70;;;5.60;99.90;;;;;;5033886;28;20038;-85
2022/02/25 11:41:15;;;;;;;21.63;2.70;;;5.40;99.90;;;;;;5033983;28;20378;-81
2022/02/25 11:43:54;;;;;;;18.10;2.93;;;5.40;99.90;;;;;;5035037;28;20029;-84
2022/02/25 11:46:23;;;;;;;18.73;2.77;;;5.40;99.90;;;;;;5033514;28;20079;-81
2022/02/25 11:48:53;;;;;;;19.23;2.90;;;5.50;99.90;;;;;;5033797;28;20386;-84
2022/02/25 11:51:40;;;;;;;16.93;2.27;;;5.50;99.90;;;;;;5033870;28;20445;-86
2022/02/25 11:54:24;;;;;;;14.87;1.80;;;5.50;99.90;;;;;;5033223;28;20039;-83
2022/02/25 11:57:04;;;;;;;14.63;2.63;;;5.60;99.90;;;;;;5033636;28;20108;-81
2022/02/25 11:59:33;;;;;;;24.93;3.10;;;5.60;99.90;;;;;;5033534;28;20025;-82
2022/02/25 12:02:30;;;;;;;17.53;2.40;;;5.60;99.90;;;;;;5033622;28;20470;-82
2022/02/25 12:05:05;;;;;;;11.40;2.30;;;5.60;99.90;;;;;;5047304;28;20374;-81
2022/02/25 12:07:32;;;;;;;12.23;2.00;;;5.60;99.90;;;;;;5052919;28;20461;-80
2022/02/25 12:10:00;;;;;;;21.53;2.47;;;6.10;99.90;;;;;;5033424;28;20056;-81
2022/02/25 12:12:29;;;;;;;17.10;3.00;;;7.00;99.90;;;;;;5039275;28;20029;-81
2022/02/25 12:15:07;;;;;;;14.73;1.93;;;7.80;99.90;;;;;;5032621;28;20493;-82
2022/02/25 12:17:40;;;;;;;9.02;1.30;;;8.90;99.90;;;;;;5032765;28;20488;-81
2022/02/25 12:20:13;;;;;;;9.45;1.48;;;9.70;99.90;;;;;;5034075;28;20033;-82
2022/02/25 12:22:50;;;;;;;13.77;2.00;;;10.00;99.90;;;;;;5034175;28;20385;-84
2022/02/25 12:25:39;;;;;;;15.02;1.92;;;10.10;99.90;;;;;;5033397;28;20033;-81
2022/02/25 12:28:11;;;;;;;15.13;1.70;;;9.90;99.90;;;;;;5043487;28;20049;-81
2022/02/25 12:30:38;;;;;;;15.65;2.80;;;9.60;99.60;;;;;;5053026;28;20033;-83
2022/02/25 12:33:30;;;;;;;18.02;1.90;;;9.60;99.50;;;;;;5052567;28;20051;-82
2022/02/25 12:35:57;;;;;;;16.08;2.03;;;9.70;99.50;;;;;;5054109;28;20197;-80
2022/02/25 12:38:24;;;;;;;13.80;2.03;;;9.90;99.60;;;;;;5052526;28;20126;-82
2022/02/25 12:40:51;;;;;;;11.60;2.20;;;10.10;97.70;;;;;;5033658;28;20022;-84
2022/02/25 12:43:20;;;;;;;16.75;2.30;;;10.40;98.70;;;;;;5032790;28;20382;-81
2022/02/25 12:45:47;;;;;;;12.15;1.95;;;11.00;97.00;;;;;;5023713;28;20076;-82
2022/02/25 12:48:14;;;;;;;18.52;2.45;;;11.00;94.00;;;;;;5032841;28;20030;-86
2022/02/25 12:50:43;;;;;;;12.50;2.40;;;10.80;93.00;;;;;;5037268;28;20484;-81
2022/02/25 12:53:10;;;;;;;14.82;2.22;;;10.50;92.60;;;;;;5044539;28;20029;-83
2022/02/25 12:55:49;;;;;;;16.55;3.08;;;10.10;91.70;;;;;;5032215;28;20044;-83